Time;durP1;ratioP1;P1;durP2;ratioP2;P2;SDS_P1;SDS_P2;PMS_P1;PMS_P2;Temp;Humidity;BMP_temperature;BMP_pressure;BME280_temperature;BME280_humidity;BME280_pressure;Samples;Min_cycle;Max_cycle;Signal;HPM_P1;HPM_P2
2023/12/09 00:00:42;;;;;;;10.35;5.38;;;;;;;;;;10478957;28;20032;-65
2023/12/09 00:05:43;;;;;;;10.07;5.32;;;;;;;;;;10485461;28;20241;-64
2023/12/09 00:10:43;;;;;;;9.82;5.28;;;;;;;;;;10471015;28;20029;-70
2023/12/09 00:15:44;;;;;;;10.98;5.40;;;;;;;;;;10480591;28;20024;-70
2023/12/09 00:20:45;;;;;;;9.95;4.97;;;;;;;;;;10472915;28;20036;-70
2023/12/09 00:25:45;;;;;;;8.48;5.47;;;;;;;;;;10483752;28;20297;-70
2023/12/09 00:30:46;;;;;;;13.77;5.15;;;;;;;;;;10474224;28;20040;-70
2023/12/09 00:35:46;;;;;;;8.98;5.18;;;;;;;;;;10495389;28;20028;-67
2023/12/09 00:40:47;;;;;;;9.07;4.88;;;;;;;;;;10494301;28;20025;-68
2023/12/09 00:45:48;;;;;;;7.75;5.00;;;;;;;;;;10486870;28;20040;-67
2023/12/09 00:50:48;;;;;;;10.55;5.40;;;;;;;;;;10488411;28;20056;-68
2023/12/09 00:55:49;;;;;;;8.00;5.20;;;;;;;;;;10493237;28;20028;-69
2023/12/09 01:00:49;;;;;;;8.23;5.10;;;;;;;;;;10492585;28;20514;-68
2023/12/09 01:05:50;;;;;;;9.07;5.50;;;;;;;;;;10489643;28;20502;-64
2023/12/09 01:10:51;;;;;;;8.35;5.07;;;;;;;;;;10482279;28;20028;-66
2023/12/09 01:15:51;;;;;;;7.82;4.90;;;;;;;;;;10480791;28;20027;-67
2023/12/09 01:20:52;;;;;;;9.30;5.03;;;;;;;;;;10491586;28;20043;-68
2023/12/09 01:25:53;;;;;;;9.18;5.00;;;;;;;;;;10492200;28;20119;-67
2023/12/09 01:30:54;;;;;;;7.15;4.88;;;;;;;;;;10489509;28;20024;-67
2023/12/09 01:35:54;;;;;;;7.43;4.38;;;;;;;;;;10493291;28;20032;-71
2023/12/09 01:40:55;;;;;;;8.90;4.32;;;;;;;;;;10491273;28;20028;-71
2023/12/09 01:46:06;;;;;;;7.25;4.82;;;;;;;;;;10478582;28;20036;-67
2023/12/09 01:51:08;;;;;;;8.10;4.40;;;;;;;;;;10478516;28;20049;-65
2023/12/09 01:56:16;;;;;;;6.70;4.18;;;;;;;;;;10471050;28;20025;-67
2023/12/09 02:01:17;;;;;;;8.48;4.88;;;;;;;;;;10463069;28;20021;-66
2023/12/09 02:06:17;;;;;;;5.93;4.22;;;;;;;;;;10482358;28;20040;-63
2023/12/09 02:11:51;;;;;;;8.18;4.82;;;;;;;;;;10467730;28;20510;-64
2023/12/09 02:17:15;;;;;;;8.95;4.70;;;;;;;;;;10481671;28;20029;-68
2023/12/09 02:22:16;;;;;;;9.27;4.68;;;;;;;;;;10479297;28;20105;-67
2023/12/09 02:27:25;;;;;;;7.05;4.40;;;;;;;;;;10476979;28;20033;-62
2023/12/09 02:32:30;;;;;;;5.57;3.85;;;;;;;;;;10488494;28;20383;-66
2023/12/09 02:37:33;;;;;;;6.70;4.90;;;;;;;;;;10484123;28;20172;-68
2023/12/09 02:42:34;;;;;;;9.23;4.82;;;;;;;;;;10461303;28;20488;-68
2023/12/09 02:47:34;;;;;;;10.32;5.05;;;;;;;;;;10475980;28;20086;-66
2023/12/09 02:52:35;;;;;;;10.82;4.57;;;;;;;;;;10482768;28;20059;-66
2023/12/09 02:57:35;;;;;;;10.80;4.43;;;;;;;;;;10479834;28;20040;-67
2023/12/09 03:02:36;;;;;;;9.20;4.40;;;;;;;;;;10483494;28;20037;-69
2023/12/09 03:07:36;;;;;;;6.75;4.97;;;;;;;;;;10475411;28;20079;-68
2023/12/09 03:12:37;;;;;;;7.93;4.47;;;;;;;;;;10464324;28;20033;-68
2023/12/09 03:17:38;;;;;;;9.75;4.80;;;;;;;;;;10482949;28;20040;-68
2023/12/09 03:22:38;;;;;;;7.10;4.18;;;;;;;;;;10483224;28;20391;-67
2023/12/09 03:27:39;;;;;;;6.82;4.07;;;;;;;;;;10480930;28;20024;-59
2023/12/09 03:32:40;;;;;;;9.23;4.25;;;;;;;;;;10485453;28;20031;-60
2023/12/09 03:37:40;;;;;;;7.25;4.30;;;;;;;;;;10488455;28;20035;-60
2023/12/09 03:42:41;;;;;;;7.35;4.63;;;;;;;;;;10475579;28;20098;-64
2023/12/09 03:47:41;;;;;;;4.75;4.00;;;;;;;;;;10488306;28;20028;-61
2023/12/09 03:52:42;;;;;;;7.15;4.78;;;;;;;;;;10483585;28;20051;-62
2023/12/09 03:57:43;;;;;;;8.00;4.15;;;;;;;;;;10486510;28;20028;-59
2023/12/09 04:02:43;;;;;;;4.43;3.40;;;;;;;;;;10485161;28;20029;-59
2023/12/09 04:07:44;;;;;;;6.57;4.43;;;;;;;;;;10490400;28;20024;-59
2023/12/09 04:12:44;;;;;;;4.05;3.65;;;;;;;;;;10498316;28;20024;-66
2023/12/09 04:17:46;;;;;;;5.22;3.97;;;;;;;;;;10499943;28;20503;-64
2023/12/09 04:22:47;;;;;;;5.40;4.15;;;;;;;;;;10497034;28;20036;-59
2023/12/09 04:27:48;;;;;;;6.88;4.35;;;;;;;;;;10497387;28;20083;-59
2023/12/09 04:32:49;;;;;;;4.88;3.65;;;;;;;;;;10479111;28;20043;-61
2023/12/09 04:37:50;;;;;;;6.70;3.85;;;;;;;;;;10499110;28;20391;-58
2023/12/09 04:42:50;;;;;;;6.90;4.03;;;;;;;;;;10499249;28;20028;-59
2023/12/09 04:47:51;;;;;;;5.65;3.92;;;;;;;;;;10491928;28;20021;-58
2023/12/09 04:52:52;;;;;;;5.32;3.85;;;;;;;;;;10495939;28;20040;-59
2023/12/09 04:57:53;;;;;;;5.38;3.97;;;;;;;;;;10478625;28;20033;-58
2023/12/09 05:02:53;;;;;;;4.95;3.95;;;;;;;;;;10465192;28;20021;-58
2023/12/09 05:07:54;;;;;;;7.50;4.30;;;;;;;;;;10497622;28;20059;-64
2023/12/09 05:12:54;;;;;;;7.07;3.63;;;;;;;;;;10487847;28;20036;-59
2023/12/09 05:17:56;;;;;;;6.75;4.10;;;;;;;;;;10477082;28;20021;-58
2023/12/09 05:22:57;;;;;;;5.38;3.75;;;;;;;;;;10493560;28;20028;-58
2023/12/09 05:27:57;;;;;;;5.70;4.07;;;;;;;;;;10487289;28;20354;-60
2023/12/09 05:32:58;;;;;;;5.05;3.75;;;;;;;;;;10480684;28;20388;-58
2023/12/09 05:37:59;;;;;;;6.25;4.03;;;;;;;;;;10478191;28;20031;-58
2023/12/09 05:43:00;;;;;;;6.20;4.03;;;;;;;;;;10469433;28;20029;-58
2023/12/09 05:48:00;;;;;;;4.78;3.80;;;;;;;;;;10478300;28;20028;-57
2023/12/09 05:53:01;;;;;;;6.88;3.97;;;;;;;;;;10488674;28;20503;-62
2023/12/09 05:58:02;;;;;;;6.05;3.95;;;;;;;;;;10479214;28;20445;-59
2023/12/09 06:03:03;;;;;;;5.57;3.83;;;;;;;;;;10479555;28;20041;-58
2023/12/09 06:08:04;;;;;;;5.65;3.97;;;;;;;;;;10480754;28;20369;-58
2023/12/09 06:13:04;;;;;;;5.65;3.80;;;;;;;;;;10486003;28;20043;-58
2023/12/09 06:18:05;;;;;;;6.20;4.00;;;;;;;;;;10475933;28;20032;-58
2023/12/09 06:23:05;;;;;;;6.25;3.75;;;;;;;;;;10488925;28;20040;-59
2023/12/09 06:28:06;;;;;;;6.22;3.70;;;;;;;;;;10486828;28;20024;-64
2023/12/09 06:33:06;;;;;;;6.35;4.13;;;;;;;;;;10483421;28;20039;-58
2023/12/09 06:38:07;;;;;;;12.15;3.90;;;;;;;;;;10476014;28;20036;-61
2023/12/09 06:43:07;;;;;;;11.13;3.45;;;;;;;;;;10487331;28;20029;-64
2023/12/09 06:48:08;;;;;;;4.63;3.83;;;;;;;;;;10485561;28;20060;-61
2023/12/09 06:53:13;;;;;;;7.40;3.75;;;;;;;;;;10480789;28;20064;-59
2023/12/09 06:58:15;;;;;;;3.90;3.50;;;;;;;;;;10484442;28;20021;-60
2023/12/09 07:03:17;;;;;;;6.68;3.70;;;;;;;;;;10475390;28;20048;-59
2023/12/09 07:08:18;;;;;;;6.75;3.80;;;;;;;;;;10490864;28;21290;-59
2023/12/09 07:13:19;;;;;;;6.95;3.95;;;;;;;;;;10477546;28;20024;-58
2023/12/09 07:18:19;;;;;;;11.80;4.72;;;;;;;;;;10477855;28;20033;-59
2023/12/09 07:23:20;;;;;;;6.80;5.07;;;;;;;;;;10481299;28;20447;-58
2023/12/09 07:28:21;;;;;;;12.65;5.72;;;;;;;;;;10483499;28;20431;-59
2023/12/09 07:33:21;;;;;;;7.68;6.30;;;;;;;;;;10475418;28;20044;-52
2023/12/09 07:38:22;;;;;;;18.85;7.43;;;;;;;;;;10486556;28;20032;-58
2023/12/09 07:43:23;;;;;;;13.73;8.05;;;;;;;;;;10485431;28;20041;-56
2023/12/09 07:48:23;;;;;;;16.55;8.82;;;;;;;;;;10486551;28;20029;-55
2023/12/09 07:53:24;;;;;;;17.38;9.25;;;;;;;;;;10477961;28;20063;-57
2023/12/09 07:58:24;;;;;;;14.65;9.43;;;;;;;;;;10485062;28;20407;-55
2023/12/09 08:03:25;;;;;;;14.93;8.98;;;;;;;;;;10480671;28;20028;-58
2023/12/09 08:08:27;;;;;;;18.20;8.95;;;;;;;;;;10480580;28;20031;-58
2023/12/09 08:13:27;;;;;;;11.25;8.48;;;;;;;;;;10482887;28;20040;-59
2023/12/09 08:18:28;;;;;;;17.73;9.18;;;;;;;;;;10474031;28;20028;-58
2023/12/09 08:23:29;;;;;;;13.63;8.90;;;;;;;;;;10476201;28;20055;-59
2023/12/09 08:28:30;;;;;;;16.23;8.82;;;;;;;;;;10475845;28;20066;-58
2023/12/09 08:33:30;;;;;;;13.60;8.65;;;;;;;;;;10479079;28;20537;-59
2023/12/09 08:38:31;;;;;;;12.82;8.77;;;;;;;;;;10486063;28;20021;-60
2023/12/09 08:43:32;;;;;;;19.60;9.95;;;;;;;;;;10482318;28;20381;-59
2023/12/09 08:48:32;;;;;;;27.00;10.27;;;;;;;;;;10474541;28;20072;-62
2023/12/09 08:53:33;;;;;;;17.55;10.10;;;;;;;;;;10486214;28;20415;-58
2023/12/09 08:58:34;;;;;;;14.93;9.88;;;;;;;;;;10482509;28;20052;-60
2023/12/09 09:03:35;;;;;;;15.90;9.93;;;;;;;;;;10472258;28;20039;-55
2023/12/09 09:08:35;;;;;;;17.80;10.10;;;;;;;;;;10484890;28;20036;-57
2023/12/09 09:13:36;;;;;;;20.88;10.57;;;;;;;;;;10492701;28;20044;-61
2023/12/09 09:18:37;;;;;;;18.10;11.27;;;;;;;;;;10486551;28;20025;-57
2023/12/09 09:23:37;;;;;;;24.42;11.07;;;;;;;;;;10490748;28;20507;-52
2023/12/09 09:28:38;;;;;;;26.20;11.02;;;;;;;;;;10491108;28;20024;-57
2023/12/09 09:33:41;;;;;;;21.55;12.45;;;;;;;;;;10490742;28;20369;-59
2023/12/09 09:38:42;;;;;;;20.45;12.02;;;;;;;;;;10490748;28;20020;-58
2023/12/09 09:43:47;;;;;;;24.42;11.38;;;;;;;;;;10490847;28;20033;-60
2023/12/09 09:48:51;;;;;;;19.10;11.40;;;;;;;;;;10463490;28;20162;-55
2023/12/09 09:54:16;;;;;;;21.13;10.52;;;;;;;;;;10490983;28;20062;-61
2023/12/09 09:59:18;;;;;;;26.35;11.65;;;;;;;;;;10464651;28;20392;-61
2023/12/09 10:04:18;;;;;;;22.77;11.52;;;;;;;;;;10480695;28;20384;-62
2023/12/09 10:09:19;;;;;;;27.23;11.48;;;;;;;;;;10476316;28;20029;-63
2023/12/09 10:14:19;;;;;;;25.48;11.43;;;;;;;;;;10483104;28;20452;-61
2023/12/09 10:19:20;;;;;;;32.25;11.35;;;;;;;;;;10472680;28;20472;-61
2023/12/09 10:24:21;;;;;;;51.83;11.63;;;;;;;;;;10474268;28;20047;-59
2023/12/09 10:29:21;;;;;;;25.38;10.90;;;;;;;;;;10473923;28;20060;-58
2023/12/09 10:34:23;;;;;;;22.92;11.98;;;;;;;;;;10472193;28;20021;-58
2023/12/09 10:39:23;;;;;;;25.38;11.77;;;;;;;;;;10486595;28;20024;-53
2023/12/09 10:44:24;;;;;;;26.85;12.48;;;;;;;;;;10487264;28;20036;-53
2023/12/09 10:49:24;;;;;;;23.88;12.55;;;;;;;;;;10473362;28;20024;-60
2023/12/09 10:54:25;;;;;;;26.75;11.85;;;;;;;;;;10461607;28;20037;-58
2023/12/09 10:59:29;;;;;;;40.25;11.70;;;;;;;;;;10448694;28;20113;-52
2023/12/09 11:04:30;;;;;;;35.40;10.90;;;;;;;;;;10473019;28;20024;-64
2023/12/09 11:09:32;;;;;;;31.13;10.70;;;;;;;;;;10455933;28;20032;-60
2023/12/09 11:14:34;;;;;;;23.17;10.02;;;;;;;;;;10453261;28;20028;-53
2023/12/09 11:19:34;;;;;;;25.85;10.13;;;;;;;;;;10472461;28;20123;-54
2023/12/09 11:24:36;;;;;;;23.33;10.70;;;;;;;;;;10469738;28;20037;-54
2023/12/09 11:29:36;;;;;;;36.15;10.48;;;;;;;;;;10472697;28;20028;-51
2023/12/09 11:34:37;;;;;;;22.95;9.63;;;;;;;;;;10484379;28;20098;-53
2023/12/09 11:39:38;;;;;;;14.75;9.23;;;;;;;;;;10475310;28;20035;-54
2023/12/09 11:44:40;;;;;;;16.17;9.00;;;;;;;;;;10472191;28;20066;-51
2023/12/09 11:49:42;;;;;;;29.40;9.15;;;;;;;;;;10476356;28;20028;-54
2023/12/09 11:54:43;;;;;;;24.98;9.38;;;;;;;;;;10483285;28;20095;-54
2023/12/09 11:59:43;;;;;;;20.75;8.95;;;;;;;;;;10466635;28;20087;-53
2023/12/09 12:04:44;;;;;;;19.55;10.05;;;;;;;;;;10487200;28;20032;-53
2023/12/09 12:09:44;;;;;;;21.77;8.82;;;;;;;;;;10476576;28;20039;-55
2023/12/09 12:14:46;;;;;;;28.92;9.02;;;;;;;;;;10485755;28;20040;-54
2023/12/09 12:19:47;;;;;;;18.50;8.50;;;;;;;;;;10467395;28;20033;-63
2023/12/09 12:24:48;;;;;;;16.52;7.90;;;;;;;;;;10464262;28;20185;-55
2023/12/09 12:29:48;;;;;;;19.90;9.57;;;;;;;;;;10474608;28;20376;-54
2023/12/09 12:34:50;;;;;;;26.13;14.15;;;;;;;;;;10466198;28;20463;-55
2023/12/09 12:39:51;;;;;;;38.55;18.48;;;;;;;;;;10477420;28;20357;-54
2023/12/09 12:44:52;;;;;;;57.50;26.98;;;;;;;;;;10459355;28;20436;-53
2023/12/09 12:49:53;;;;;;;54.42;27.80;;;;;;;;;;10483096;28;20119;-58
2023/12/09 12:54:55;;;;;;;43.88;24.20;;;;;;;;;;10483430;28;20032;-54
2023/12/09 12:59:56;;;;;;;48.63;23.85;;;;;;;;;;10486141;28;20488;-51
2023/12/09 13:04:57;;;;;;;49.50;23.20;;;;;;;;;;10486724;28;20028;-53
2023/12/09 13:09:58;;;;;;;46.33;23.70;;;;;;;;;;10482845;28;20400;-55
2023/12/09 13:14:58;;;;;;;47.95;22.30;;;;;;;;;;10481526;28;20372;-52
2023/12/09 13:19:59;;;;;;;35.85;20.80;;;;;;;;;;10478190;28;20089;-54
2023/12/09 13:25:00;;;;;;;44.92;20.33;;;;;;;;;;10465050;28;20392;-55
2023/12/09 13:30:03;;;;;;;38.33;18.33;;;;;;;;;;10470860;28;20037;-55
2023/12/09 13:35:05;;;;;;;33.92;19.45;;;;;;;;;;10471726;28;20025;-53
2023/12/09 13:40:11;;;;;;;34.85;19.65;;;;;;;;;;10458638;28;20043;-51
2023/12/09 13:45:13;;;;;;;43.65;19.05;;;;;;;;;;10452846;28;20041;-53
2023/12/09 13:50:14;;;;;;;36.83;17.58;;;;;;;;;;10461831;28;20043;-54
2023/12/09 13:55:14;;;;;;;39.72;17.70;;;;;;;;;;10471840;28;20051;-53
2023/12/09 14:00:16;;;;;;;28.67;15.40;;;;;;;;;;10470843;28;20033;-53
2023/12/09 14:05:16;;;;;;;28.92;16.27;;;;;;;;;;10471504;28;20151;-53
2023/12/09 14:10:17;;;;;;;34.38;14.68;;;;;;;;;;10465139;28;20037;-57
2023/12/09 14:15:18;;;;;;;26.50;15.15;;;;;;;;;;10445418;28;20040;-61
2023/12/09 14:20:19;;;;;;;24.10;13.60;;;;;;;;;;10448379;28;20032;-62
2023/12/09 14:25:20;;;;;;;29.88;13.68;;;;;;;;;;10468453;28;20055;-55
2023/12/09 14:30:20;;;;;;;26.90;13.05;;;;;;;;;;10471410;28;20039;-56
2023/12/09 14:35:22;;;;;;;26.35;12.95;;;;;;;;;;10464108;28;20040;-56
2023/12/09 14:40:22;;;;;;;22.42;12.95;;;;;;;;;;10453389;28;20033;-62
2023/12/09 14:45:23;;;;;;;22.98;11.80;;;;;;;;;;10449992;28;20032;-57
2023/12/09 14:50:24;;;;;;;29.55;12.65;;;;;;;;;;10452444;28;20037;-57
2023/12/09 14:55:24;;;;;;;15.65;10.57;;;;;;;;;;10455288;28;20475;-57
2023/12/09 15:00:25;;;;;;;31.02;10.65;;;;;;;;;;10454055;28;20056;-64
2023/12/09 15:05:25;;;;;;;24.23;11.27;;;;;;;;;;10458302;28;20484;-62
2023/12/09 15:10:26;;;;;;;17.67;10.13;;;;;;;;;;10478021;28;20387;-53
2023/12/09 15:15:27;;;;;;;18.80;10.65;;;;;;;;;;10474373;28;20727;-54
2023/12/09 15:20:27;;;;;;;18.40;9.82;;;;;;;;;;10474315;28;20463;-56
2023/12/09 15:25:28;;;;;;;16.95;9.68;;;;;;;;;;10475555;28;20048;-60
2023/12/09 15:30:30;;;;;;;17.65;10.30;;;;;;;;;;10467199;28;20460;-60
2023/12/09 15:35:30;;;;;;;18.88;9.38;;;;;;;;;;10457186;28;20525;-55
2023/12/09 15:40:31;;;;;;;15.07;9.45;;;;;;;;;;10478663;28;20029;-59
2023/12/09 15:45:31;;;;;;;16.60;9.15;;;;;;;;;;10466072;28;20582;-69
2023/12/09 15:50:32;;;;;;;16.33;9.25;;;;;;;;;;10478798;28;20035;-62
2023/12/09 15:55:33;;;;;;;17.38;9.50;;;;;;;;;;10479003;28;20115;-58
2023/12/09 16:00:33;;;;;;;12.90;7.93;;;;;;;;;;10479437;28;20020;-61
2023/12/09 16:05:34;;;;;;;12.23;8.55;;;;;;;;;;10466911;28;20476;-56
2023/12/09 16:10:34;;;;;;;13.27;7.80;;;;;;;;;;10472710;28;20472;-54
2023/12/09 16:15:35;;;;;;;11.98;7.22;;;;;;;;;;10468140;28;20032;-64
2023/12/09 16:20:37;;;;;;;14.35;7.10;;;;;;;;;;10481221;28;20031;-63
2023/12/09 16:25:38;;;;;;;19.05;7.88;;;;;;;;;;10479969;28;20156;-59
2023/12/09 16:30:39;;;;;;;14.90;8.10;;;;;;;;;;10472792;28;20041;-60
2023/12/09 16:35:40;;;;;;;20.00;7.40;;;;;;;;;;10458734;28;20028;-66
2023/12/09 16:40:43;;;;;;;10.50;7.47;;;;;;;;;;10469865;28;20384;-55
2023/12/09 16:45:44;;;;;;;11.07;7.60;;;;;;;;;;10457351;28;20089;-60
2023/12/09 16:50:45;;;;;;;13.60;7.40;;;;;;;;;;10470488;28;20454;-67
2023/12/09 16:55:46;;;;;;;15.05;7.20;;;;;;;;;;10477169;28;20483;-59
2023/12/09 17:00:47;;;;;;;14.32;7.28;;;;;;;;;;10468371;28;20043;-57
2023/12/09 17:05:48;;;;;;;12.48;6.93;;;;;;;;;;10469380;28;20044;-64
2023/12/09 17:10:48;;;;;;;13.27;7.75;;;;;;;;;;10471757;28;20104;-63
2023/12/09 17:15:50;;;;;;;12.43;7.00;;;;;;;;;;10472572;28;20097;-56
2023/12/09 17:20:51;;;;;;;10.98;6.88;;;;;;;;;;10471048;28;20036;-55
2023/12/09 17:25:52;;;;;;;8.30;6.32;;;;;;;;;;10483386;28;20496;-62
2023/12/09 17:30:52;;;;;;;16.92;7.65;;;;;;;;;;10479353;28;20105;-65
2023/12/09 17:35:53;;;;;;;13.60;7.57;;;;;;;;;;10482469;28;20388;-60
2023/12/09 17:40:54;;;;;;;12.82;7.28;;;;;;;;;;10483730;28;20039;-62
2023/12/09 17:45:54;;;;;;;11.02;6.85;;;;;;;;;;10485967;28;20038;-62
2023/12/09 17:50:55;;;;;;;17.70;7.22;;;;;;;;;;10470591;28;20052;-60
2023/12/09 17:55:56;;;;;;;10.25;6.72;;;;;;;;;;10479327;28;20115;-66
2023/12/09 18:00:56;;;;;;;14.50;6.93;;;;;;;;;;10461704;28;20029;-63
2023/12/09 18:05:57;;;;;;;13.50;7.03;;;;;;;;;;10479806;28;20028;-56
2023/12/09 18:10:58;;;;;;;17.67;7.38;;;;;;;;;;10472252;28;20098;-58
2023/12/09 18:15:59;;;;;;;19.48;8.13;;;;;;;;;;10482011;28;20035;-59
2023/12/09 18:21:00;;;;;;;29.85;8.57;;;;;;;;;;10476833;28;20028;-51
2023/12/09 18:26:00;;;;;;;22.30;8.68;;;;;;;;;;10469230;28;20033;-53
2023/12/09 18:31:03;;;;;;;17.67;8.30;;;;;;;;;;10471529;28;20420;-63
2023/12/09 18:36:04;;;;;;;21.40;7.35;;;;;;;;;;10469731;28;20097;-62
2023/12/09 18:41:05;;;;;;;30.55;7.78;;;;;;;;;;10459394;28;20132;-60
2023/12/09 18:46:06;;;;;;;20.30;8.10;;;;;;;;;;10479643;28;20029;-58
2023/12/09 18:51:07;;;;;;;13.75;7.80;;;;;;;;;;10484219;28;20048;-55
2023/12/09 18:56:09;;;;;;;16.73;7.13;;;;;;;;;;10482443;28;20195;-55
2023/12/09 19:01:10;;;;;;;14.32;7.50;;;;;;;;;;10478289;28;20101;-63
2023/12/09 19:06:10;;;;;;;14.32;8.00;;;;;;;;;;10484196;28;20044;-58
2023/12/09 19:11:11;;;;;;;18.73;9.02;;;;;;;;;;10452000;28;20031;-59
2023/12/09 19:16:12;;;;;;;22.15;9.00;;;;;;;;;;10469054;28;20024;-61
2023/12/09 19:21:13;;;;;;;12.13;8.15;;;;;;;;;;10475775;28;20356;-63
2023/12/09 19:26:15;;;;;;;11.60;7.63;;;;;;;;;;10470430;28;20036;-63
2023/12/09 19:31:15;;;;;;;13.32;7.65;;;;;;;;;;10473298;28;20063;-61
2023/12/09 19:36:16;;;;;;;15.45;8.02;;;;;;;;;;10477410;28;20128;-61
2023/12/09 19:41:16;;;;;;;11.82;8.02;;;;;;;;;;10481397;28;20031;-58
2023/12/09 19:46:17;;;;;;;14.55;8.90;;;;;;;;;;10479450;28;20032;-57
2023/12/09 19:51:18;;;;;;;17.85;9.23;;;;;;;;;;10468484;28;20046;-59
2023/12/09 19:56:18;;;;;;;13.32;9.05;;;;;;;;;;10475015;28;20033;-61
2023/12/09 20:01:19;;;;;;;13.57;8.98;;;;;;;;;;10440830;28;20040;-55
2023/12/09 20:06:20;;;;;;;18.05;8.68;;;;;;;;;;10456280;28;20052;-57
2023/12/09 20:11:20;;;;;;;13.70;8.45;;;;;;;;;;10459182;28;20021;-59
2023/12/09 20:16:23;;;;;;;17.45;9.02;;;;;;;;;;10454795;28;20024;-60
2023/12/09 20:21:23;;;;;;;13.98;8.40;;;;;;;;;;10452758;28;20341;-58
2023/12/09 20:26:24;;;;;;;16.63;7.88;;;;;;;;;;10460394;28;20314;-61
2023/12/09 20:31:25;;;;;;;11.75;6.88;;;;;;;;;;10472537;28;20028;-60
2023/12/09 20:36:26;;;;;;;11.40;7.90;;;;;;;;;;10461973;28;20392;-54
2023/12/09 20:41:27;;;;;;;15.73;8.13;;;;;;;;;;10455421;28;20214;-60
2023/12/09 20:46:27;;;;;;;17.83;7.95;;;;;;;;;;10453096;28;20631;-62
2023/12/09 20:51:29;;;;;;;13.57;7.35;;;;;;;;;;10464410;28;20055;-62
2023/12/09 20:56:29;;;;;;;12.52;6.82;;;;;;;;;;10478112;28;20403;-61
2023/12/09 21:01:30;;;;;;;15.48;7.45;;;;;;;;;;10475248;28;20032;-57
2023/12/09 21:06:31;;;;;;;15.85;7.47;;;;;;;;;;10481991;28;20615;-54
2023/12/09 21:11:31;;;;;;;10.05;6.78;;;;;;;;;;10481964;28;20137;-58
2023/12/09 21:16:34;;;;;;;14.93;6.93;;;;;;;;;;10472567;28;20392;-61
2023/12/09 21:21:34;;;;;;;22.50;7.78;;;;;;;;;;10479580;28;20048;-62
2023/12/09 21:26:38;;;;;;;13.00;7.30;;;;;;;;;;10477499;28;20052;-58
2023/12/09 21:31:39;;;;;;;12.23;7.10;;;;;;;;;;10480081;28;20153;-59
2023/12/09 21:36:39;;;;;;;27.98;7.28;;;;;;;;;;10481438;28;20047;-60
2023/12/09 21:41:40;;;;;;;14.45;7.30;;;;;;;;;;10480277;28;20107;-59
2023/12/09 21:46:41;;;;;;;10.82;5.95;;;;;;;;;;10478128;28;20044;-61
2023/12/09 21:51:42;;;;;;;12.18;6.78;;;;;;;;;;10479048;28;20045;-59
2023/12/09 21:56:42;;;;;;;9.40;6.05;;;;;;;;;;10484951;28;20040;-62
2023/12/09 22:01:43;;;;;;;11.10;6.50;;;;;;;;;;10476652;28;20040;-61
2023/12/09 22:06:43;;;;;;;9.60;5.97;;;;;;;;;;10477263;28;20183;-59
2023/12/09 22:11:44;;;;;;;9.55;5.97;;;;;;;;;;10477440;28;20040;-63
2023/12/09 22:16:45;;;;;;;6.88;5.50;;;;;;;;;;10462235;28;20559;-58
2023/12/09 22:21:46;;;;;;;7.50;5.30;;;;;;;;;;10477665;28;20032;-59
2023/12/09 22:26:47;;;;;;;7.95;6.05;;;;;;;;;;10484022;28;20036;-58
2023/12/09 22:31:48;;;;;;;6.85;5.50;;;;;;;;;;10481313;28;20017;-61
2023/12/09 22:36:48;;;;;;;11.77;6.43;;;;;;;;;;10475338;28;20029;-62
2023/12/09 22:41:49;;;;;;;11.10;6.15;;;;;;;;;;10466546;28;20037;-59
2023/12/09 22:46:49;;;;;;;8.77;6.13;;;;;;;;;;10483705;28;20021;-59
2023/12/09 22:51:50;;;;;;;9.07;5.28;;;;;;;;;;10479387;28;20043;-60
2023/12/09 22:56:50;;;;;;;6.47;4.97;;;;;;;;;;10480140;28;20040;-60
2023/12/09 23:01:51;;;;;;;10.85;5.80;;;;;;;;;;10466246;28;20372;-59
2023/12/09 23:06:52;;;;;;;7.13;5.68;;;;;;;;;;10473850;28;20130;-61
2023/12/09 23:11:52;;;;;;;6.65;4.65;;;;;;;;;;10481923;28;20024;-63
2023/12/09 23:16:53;;;;;;;4.90;4.43;;;;;;;;;;10465344;28;20052;-58
2023/12/09 23:21:53;;;;;;;11.80;4.90;;;;;;;;;;10454673;28;20068;-59
2023/12/09 23:26:54;;;;;;;7.43;5.15;;;;;;;;;;10455509;28;20028;-59
2023/12/09 23:31:55;;;;;;;8.27;4.90;;;;;;;;;;10454999;28;20028;-59
2023/12/09 23:36:55;;;;;;;5.93;4.68;;;;;;;;;;10455260;28;20043;-59
2023/12/09 23:41:56;;;;;;;7.78;4.50;;;;;;;;;;10454583;28;20033;-59
2023/12/09 23:46:56;;;;;;;5.40;4.47;;;;;;;;;;10454009;28;21094;-58
2023/12/09 23:51:57;;;;;;;12.00;5.00;;;;;;;;;;10454296;28;20192;-59
2023/12/09 23:56:58;;;;;;;8.10;5.20;;;;;;;;;;10473645;28;20020;-59
